sensor_id;sensor_type;location;lat;lon;timestamp;pressure;altitude;pressure_sealevel;temperature;humidity
79799;BME280;69283;48.024;11.090;2023-05-29T00:01:18;95337.91;;;10.71;63.54
79799;BME280;69283;48.024;11.090;2023-05-29T00:03:44;95333.19;;;10.68;63.72
79799;BME280;69283;48.024;11.090;2023-05-29T00:06:09;95327.41;;;10.70;63.40
79799;BME280;69283;48.024;11.090;2023-05-29T00:08:35;95331.38;;;10.72;63.32
79799;BME280;69283;48.024;11.090;2023-05-29T00:11:00;95338.91;;;10.54;63.84
79799;BME280;69283;48.024;11.090;2023-05-29T00:13:26;95340.69;;;10.50;64.70
79799;BME280;69283;48.024;11.090;2023-05-29T00:15:52;95335.84;;;10.44;65.16
79799;BME280;69283;48.024;11.090;2023-05-29T00:18:17;95338.22;;;10.45;64.97
79799;BME280;69283;48.024;11.090;2023-05-29T00:20:42;95337.09;;;10.46;64.50
79799;BME280;69283;48.024;11.090;2023-05-29T00:23:08;95335.13;;;10.34;64.05
79799;BME280;69283;48.024;11.090;2023-05-29T00:25:35;95334.00;;;10.35;65.25
79799;BME280;69283;48.024;11.090;2023-05-29T00:28:01;95335.56;;;10.36;64.62
79799;BME280;69283;48.024;11.090;2023-05-29T00:30:26;95332.31;;;10.31;65.17
79799;BME280;69283;48.024;11.090;2023-05-29T00:32:51;95333.66;;;10.25;65.67
79799;BME280;69283;48.024;11.090;2023-05-29T00:35:19;95326.53;;;10.32;64.47
79799;BME280;69283;48.024;11.090;2023-05-29T00:37:45;95316.94;;;10.23;65.19
79799;BME280;69283;48.024;11.090;2023-05-29T00:40:10;95320.13;;;10.16;66.35
79799;BME280;69283;48.024;11.090;2023-05-29T00:42:36;95322.69;;;10.21;66.28
79799;BME280;69283;48.024;11.090;2023-05-29T00:45:02;95313.44;;;10.22;65.32
79799;BME280;69283;48.024;11.090;2023-05-29T00:47:28;95318.31;;;10.08;66.44
79799;BME280;69283;48.024;11.090;2023-05-29T00:49:53;95325.31;;;10.09;66.31
79799;BME280;69283;48.024;11.090;2023-05-29T00:52:20;95326.31;;;10.04;65.81
79799;BME280;69283;48.024;11.090;2023-05-29T00:54:46;95321.38;;;9.86;67.00
79799;BME280;69283;48.024;11.090;2023-05-29T00:57:12;95319.81;;;9.85;67.10
79799;BME280;69283;48.024;11.090;2023-05-29T00:59:39;95320.16;;;9.83;66.22
79799;BME280;69283;48.024;11.090;2023-05-29T01:02:06;95323.50;;;9.80;67.31
79799;BME280;69283;48.024;11.090;2023-05-29T01:04:31;95319.69;;;9.81;66.83
79799;BME280;69283;48.024;11.090;2023-05-29T01:07:01;95325.56;;;9.83;66.99
79799;BME280;69283;48.024;11.090;2023-05-29T01:09:31;95318.63;;;9.73;67.69
79799;BME280;69283;48.024;11.090;2023-05-29T01:14:57;95337.75;;;9.68;67.12
79799;BME280;69283;48.024;11.090;2023-05-29T01:20:09;95331.44;;;9.64;67.66
79799;BME280;69283;48.024;11.090;2023-05-29T01:23:07;95337.31;;;9.66;66.72
79799;BME280;69283;48.024;11.090;2023-05-29T01:25:39;95337.97;;;9.63;67.38
79799;BME280;69283;48.024;11.090;2023-05-29T01:28:09;95329.56;;;9.56;67.58
79799;BME280;69283;48.024;11.090;2023-05-29T01:30:35;95329.44;;;9.53;67.42
79799;BME280;69283;48.024;11.090;2023-05-29T01:33:02;95329.84;;;9.42;67.75
79799;BME280;69283;48.024;11.090;2023-05-29T01:35:28;95336.69;;;9.40;67.99
79799;BME280;69283;48.024;11.090;2023-05-29T01:37:53;95331.28;;;9.40;67.82
79799;BME280;69283;48.024;11.090;2023-05-29T01:40:18;95332.47;;;9.30;68.60
79799;BME280;69283;48.024;11.090;2023-05-29T01:42:44;95334.84;;;9.32;68.46
79799;BME280;69283;48.024;11.090;2023-05-29T01:45:10;95328.09;;;9.38;68.56
79799;BME280;69283;48.024;11.090;2023-05-29T01:47:37;95335.25;;;9.42;68.17
79799;BME280;69283;48.024;11.090;2023-05-29T01:50:04;95338.53;;;9.27;68.92
79799;BME280;69283;48.024;11.090;2023-05-29T01:52:30;95331.66;;;9.30;69.03
79799;BME280;69283;48.024;11.090;2023-05-29T01:54:55;95334.69;;;9.28;68.62
79799;BME280;69283;48.024;11.090;2023-05-29T01:57:21;95334.56;;;9.25;68.42
79799;BME280;69283;48.024;11.090;2023-05-29T01:59:47;95334.56;;;9.25;67.67
79799;BME280;69283;48.024;11.090;2023-05-29T02:02:13;95327.59;;;9.24;68.24
79799;BME280;69283;48.024;11.090;2023-05-29T02:04:39;95320.59;;;9.23;68.94
79799;BME280;69283;48.024;11.090;2023-05-29T02:07:04;95326.63;;;9.20;69.32
79799;BME280;69283;48.024;11.090;2023-05-29T02:09:30;95322.00;;;9.20;69.15
79799;BME280;69283;48.024;11.090;2023-05-29T02:11:55;95320.94;;;9.12;68.87
79799;BME280;69283;48.024;11.090;2023-05-29T02:14:21;95324.78;;;9.11;69.19
79799;BME280;69283;48.024;11.090;2023-05-29T02:16:46;95330.00;;;9.17;68.38
79799;BME280;69283;48.024;11.090;2023-05-29T02:19:11;95329.53;;;9.14;68.92
79799;BME280;69283;48.024;11.090;2023-05-29T02:21:40;95322.41;;;9.10;69.44
79799;BME280;69283;48.024;11.090;2023-05-29T02:24:06;95325.91;;;9.10;69.19
79799;BME280;69283;48.024;11.090;2023-05-29T02:26:32;95327.53;;;9.03;69.58
79799;BME280;69283;48.024;11.090;2023-05-29T02:28:57;95325.78;;;8.98;70.04
79799;BME280;69283;48.024;11.090;2023-05-29T02:31:22;95318.81;;;8.97;69.71
79799;BME280;69283;48.024;11.090;2023-05-29T02:33:48;95319.00;;;8.92;70.05
79799;BME280;69283;48.024;11.090;2023-05-29T02:36:13;95323.28;;;8.93;69.83
79799;BME280;69283;48.024;11.090;2023-05-29T02:38:39;95316.09;;;8.97;69.75
79799;BME280;69283;48.024;11.090;2023-05-29T02:41:04;95315.84;;;8.90;69.95
79799;BME280;69283;48.024;11.090;2023-05-29T02:43:31;95323.34;;;8.84;70.37
79799;BME280;69283;48.024;11.090;2023-05-29T02:45:56;95320.50;;;8.81;69.54
79799;BME280;69283;48.024;11.090;2023-05-29T02:48:21;95312.69;;;8.79;69.91
79799;BME280;69283;48.024;11.090;2023-05-29T02:50:47;95317.22;;;8.67;70.73
79799;BME280;69283;48.024;11.090;2023-05-29T02:53:12;95316.44;;;8.58;70.78
79799;BME280;69283;48.024;11.090;2023-05-29T02:55:37;95321.84;;;8.58;70.68
79799;BME280;69283;48.024;11.090;2023-05-29T02:58:02;95324.06;;;8.56;70.79
79799;BME280;69283;48.024;11.090;2023-05-29T03:00:28;95327.09;;;8.54;71.27
79799;BME280;69283;48.024;11.090;2023-05-29T03:02:54;95323.59;;;8.62;71.25
79799;BME280;69283;48.024;11.090;2023-05-29T03:05:19;95322.34;;;8.51;71.49
79799;BME280;69283;48.024;11.090;2023-05-29T03:07:44;95318.84;;;8.50;71.60
79799;BME280;69283;48.024;11.090;2023-05-29T03:10:10;95323.66;;;8.45;71.45
79799;BME280;69283;48.024;11.090;2023-05-29T03:12:35;95324.59;;;8.40;71.57
79799;BME280;69283;48.024;11.090;2023-05-29T03:15:00;95315.56;;;8.36;72.05
79799;BME280;69283;48.024;11.090;2023-05-29T03:17:25;95326.19;;;8.33;72.17
79799;BME280;69283;48.024;11.090;2023-05-29T03:19:51;95331.13;;;8.31;72.23
79799;BME280;69283;48.024;11.090;2023-05-29T03:22:16;95326.34;;;8.36;71.57
79799;BME280;69283;48.024;11.090;2023-05-29T03:24:41;95327.28;;;8.40;71.67
79799;BME280;69283;48.024;11.090;2023-05-29T03:27:07;95322.69;;;8.41;72.27
79799;BME280;69283;48.024;11.090;2023-05-29T03:29:32;95324.44;;;8.45;71.82
79799;BME280;69283;48.024;11.090;2023-05-29T03:31:57;95324.94;;;8.30;72.07
79799;BME280;69283;48.024;11.090;2023-05-29T03:34:23;95325.38;;;8.32;71.95
79799;BME280;69283;48.024;11.090;2023-05-29T03:36:48;95329.22;;;8.31;72.45
79799;BME280;69283;48.024;11.090;2023-05-29T03:39:13;95326.97;;;8.33;72.68
79799;BME280;69283;48.024;11.090;2023-05-29T03:41:39;95333.34;;;8.37;72.82
79799;BME280;69283;48.024;11.090;2023-05-29T03:44:04;95334.94;;;8.30;72.68
79799;BME280;69283;48.024;11.090;2023-05-29T03:46:31;95328.09;;;8.32;72.67
79799;BME280;69283;48.024;11.090;2023-05-29T03:48:56;95334.00;;;8.34;72.55
79799;BME280;69283;48.024;11.090;2023-05-29T03:51:22;95334.78;;;8.26;72.96
79799;BME280;69283;48.024;11.090;2023-05-29T03:53:47;95340.97;;;8.27;72.57
79799;BME280;69283;48.024;11.090;2023-05-29T03:56:12;95347.00;;;8.32;72.76
79799;BME280;69283;48.024;11.090;2023-05-29T03:58:37;95342.72;;;8.31;72.95
79799;BME280;69283;48.024;11.090;2023-05-29T04:01:03;95343.19;;;8.33;72.30
79799;BME280;69283;48.024;11.090;2023-05-29T04:03:29;95350.50;;;8.41;72.31
79799;BME280;69283;48.024;11.090;2023-05-29T04:05:54;95344.47;;;8.36;72.70
79799;BME280;69283;48.024;11.090;2023-05-29T04:08:20;95349.53;;;8.37;72.86
79799;BME280;69283;48.024;11.090;2023-05-29T04:10:46;95345.56;;;8.43;72.57
79799;BME280;69283;48.024;11.090;2023-05-29T04:13:11;95357.13;;;8.52;72.32
79799;BME280;69283;48.024;11.090;2023-05-29T04:15:37;95352.50;;;8.62;72.31
79799;BME280;69283;48.024;11.090;2023-05-29T04:18:03;95362.03;;;8.68;72.40
79799;BME280;69283;48.024;11.090;2023-05-29T04:20:28;95356.91;;;8.75;72.04
79799;BME280;69283;48.024;11.090;2023-05-29T04:22:54;95362.78;;;8.77;72.51
79799;BME280;69283;48.024;11.090;2023-05-29T04:25:19;95359.53;;;8.92;72.52
79799;BME280;69283;48.024;11.090;2023-05-29T04:27:45;95360.13;;;8.98;72.68
79799;BME280;69283;48.024;11.090;2023-05-29T04:30:14;95365.78;;;9.13;72.54
79799;BME280;69283;48.024;11.090;2023-05-29T04:32:39;95371.16;;;9.22;71.97
79799;BME280;69283;48.024;11.090;2023-05-29T04:35:05;95378.38;;;9.39;72.03
79799;BME280;69283;48.024;11.090;2023-05-29T04:37:31;95380.56;;;9.45;71.92
79799;BME280;69283;48.024;11.090;2023-05-29T04:40:03;95373.31;;;9.58;71.90
79799;BME280;69283;48.024;11.090;2023-05-29T04:42:38;95386.25;;;9.73;71.72
79799;BME280;69283;48.024;11.090;2023-05-29T04:45:06;95384.91;;;9.88;72.05
79799;BME280;69283;48.024;11.090;2023-05-29T04:47:31;95379.22;;;10.02;71.20
79799;BME280;69283;48.024;11.090;2023-05-29T04:50:02;95392.28;;;10.21;71.33
79799;BME280;69283;48.024;11.090;2023-05-29T04:52:27;95383.53;;;10.36;70.93
79799;BME280;69283;48.024;11.090;2023-05-29T04:54:54;95387.09;;;10.49;70.99
79799;BME280;69283;48.024;11.090;2023-05-29T04:57:19;95393.22;;;10.58;70.92
79799;BME280;69283;48.024;11.090;2023-05-29T04:59:44;95400.03;;;10.76;70.21
79799;BME280;69283;48.024;11.090;2023-05-29T05:02:10;95394.75;;;10.92;69.74
79799;BME280;69283;48.024;11.090;2023-05-29T05:04:35;95400.78;;;11.10;69.25
79799;BME280;69283;48.024;11.090;2023-05-29T05:07:02;95401.47;;;11.31;68.82
79799;BME280;69283;48.024;11.090;2023-05-29T05:09:28;95399.88;;;11.54;68.02
79799;BME280;69283;48.024;11.090;2023-05-29T05:11:54;95399.06;;;11.78;67.82
79799;BME280;69283;48.024;11.090;2023-05-29T05:14:19;95400.63;;;11.92;67.81
79799;BME280;69283;48.024;11.090;2023-05-29T05:16:45;95399.94;;;12.07;67.24
79799;BME280;69283;48.024;11.090;2023-05-29T05:19:10;95400.31;;;12.21;67.09
79799;BME280;69283;48.024;11.090;2023-05-29T05:21:35;95391.66;;;12.43;66.32
79799;BME280;69283;48.024;11.090;2023-05-29T05:24:01;95400.13;;;12.70;66.24
79799;BME280;69283;48.024;11.090;2023-05-29T05:26:26;95396.31;;;12.87;66.03
79799;BME280;69283;48.024;11.090;2023-05-29T05:28:51;95406.41;;;13.02;65.62
79799;BME280;69283;48.024;11.090;2023-05-29T05:31:17;95397.91;;;13.19;65.49
79799;BME280;69283;48.024;11.090;2023-05-29T05:33:43;95400.03;;;13.42;64.15
79799;BME280;69283;48.024;11.090;2023-05-29T05:36:08;95395.03;;;13.44;63.03
79799;BME280;69283;48.024;11.090;2023-05-29T05:38:33;95402.56;;;13.66;62.83
79799;BME280;69283;48.024;11.090;2023-05-29T05:40:59;95396.97;;;13.78;62.78
79799;BME280;69283;48.024;11.090;2023-05-29T05:43:24;95391.56;;;13.97;60.75
79799;BME280;69283;48.024;11.090;2023-05-29T05:45:52;95395.88;;;14.18;61.11
79799;BME280;69283;48.024;11.090;2023-05-29T05:48:17;95394.38;;;14.20;60.38
79799;BME280;69283;48.024;11.090;2023-05-29T05:50:42;95396.31;;;14.20;59.58
79799;BME280;69283;48.024;11.090;2023-05-29T05:53:08;95396.31;;;14.39;58.73
79799;BME280;69283;48.024;11.090;2023-05-29T05:55:33;95409.72;;;14.44;59.24
79799;BME280;69283;48.024;11.090;2023-05-29T05:57:58;95402.31;;;14.64;59.25
79799;BME280;69283;48.024;11.090;2023-05-29T06:00:23;95408.91;;;14.82;58.14
79799;BME280;69283;48.024;11.090;2023-05-29T06:02:49;95405.47;;;15.08;58.91
79799;BME280;69283;48.024;11.090;2023-05-29T06:05:14;95402.91;;;15.19;58.90
79799;BME280;69283;48.024;11.090;2023-05-29T06:07:40;95418.34;;;15.31;56.50
79799;BME280;69283;48.024;11.090;2023-05-29T06:10:08;95418.81;;;15.13;56.09
79799;BME280;69283;48.024;11.090;2023-05-29T06:12:34;95423.06;;;15.34;56.83
79799;BME280;69283;48.024;11.090;2023-05-29T06:15:00;95418.44;;;15.38;55.77
79799;BME280;69283;48.024;11.090;2023-05-29T06:17:25;95413.97;;;15.49;54.94
79799;BME280;69283;48.024;11.090;2023-05-29T06:19:50;95420.53;;;15.67;54.37
79799;BME280;69283;48.024;11.090;2023-05-29T06:22:15;95419.78;;;15.70;54.44
79799;BME280;69283;48.024;11.090;2023-05-29T06:24:41;95420.53;;;15.94;55.54
79799;BME280;69283;48.024;11.090;2023-05-29T06:27:06;95420.00;;;16.11;54.27
79799;BME280;69283;48.024;11.090;2023-05-29T06:29:32;95423.78;;;16.33;53.28
79799;BME280;69283;48.024;11.090;2023-05-29T06:31:58;95416.47;;;16.40;53.62
79799;BME280;69283;48.024;11.090;2023-05-29T06:34:23;95419.91;;;16.34;53.09
79799;BME280;69283;48.024;11.090;2023-05-29T06:36:49;95427.72;;;16.35;52.57
79799;BME280;69283;48.024;11.090;2023-05-29T06:39:14;95419.91;;;16.34;52.53
79799;BME280;69283;48.024;11.090;2023-05-29T06:41:40;95422.25;;;16.35;51.95
79799;BME280;69283;48.024;11.090;2023-05-29T06:44:06;95429.28;;;16.63;51.75
79799;BME280;69283;48.024;11.090;2023-05-29T06:46:31;95428.09;;;16.64;50.00
79799;BME280;69283;48.024;11.090;2023-05-29T06:48:56;95423.16;;;16.73;50.49
79799;BME280;69283;48.024;11.090;2023-05-29T06:51:22;95426.28;;;17.09;51.04
79799;BME280;69283;48.024;11.090;2023-05-29T06:53:47;95430.41;;;17.29;50.12
79799;BME280;69283;48.024;11.090;2023-05-29T06:56:12;95438.75;;;17.43;48.94
79799;BME280;69283;48.024;11.090;2023-05-29T06:58:37;95435.66;;;17.48;48.62
79799;BME280;69283;48.024;11.090;2023-05-29T07:01:03;95433.31;;;17.50;48.18
79799;BME280;69283;48.024;11.090;2023-05-29T07:03:28;95437.28;;;17.56;48.51
79799;BME280;69283;48.024;11.090;2023-05-29T07:05:54;95433.72;;;17.52;49.37
79799;BME280;69283;48.024;11.090;2023-05-29T07:08:20;95431.22;;;17.81;49.08
79799;BME280;69283;48.024;11.090;2023-05-29T07:10:45;95426.00;;;18.13;48.09
79799;BME280;69283;48.024;11.090;2023-05-29T07:13:15;95427.91;;;18.05;47.44
79799;BME280;69283;48.024;11.090;2023-05-29T07:15:40;95435.81;;;18.17;48.43
79799;BME280;69283;48.024;11.090;2023-05-29T07:18:06;95437.84;;;18.28;47.44
79799;BME280;69283;48.024;11.090;2023-05-29T07:20:31;95442.91;;;18.26;46.54
79799;BME280;69283;48.024;11.090;2023-05-29T07:22:56;95442.19;;;18.36;47.09
79799;BME280;69283;48.024;11.090;2023-05-29T07:25:22;95446.28;;;18.63;46.60
79799;BME280;69283;48.024;11.090;2023-05-29T07:27:47;95451.78;;;18.63;45.95
79799;BME280;69283;48.024;11.090;2023-05-29T07:30:12;95450.91;;;18.55;45.93
79799;BME280;69283;48.024;11.090;2023-05-29T07:32:38;95451.69;;;18.60;46.45
79799;BME280;69283;48.024;11.090;2023-05-29T07:35:03;95450.69;;;18.86;46.01
79799;BME280;69283;48.024;11.090;2023-05-29T07:37:29;95451.91;;;18.99;45.52
79799;BME280;69283;48.024;11.090;2023-05-29T07:39:55;95453.50;;;19.03;45.34
79799;BME280;69283;48.024;11.090;2023-05-29T07:42:20;95453.53;;;19.21;45.51
79799;BME280;69283;48.024;11.090;2023-05-29T07:44:46;95458.22;;;19.21;44.96
79799;BME280;69283;48.024;11.090;2023-05-29T07:47:13;95456.34;;;19.50;44.86
79799;BME280;69283;48.024;11.090;2023-05-29T07:49:38;95453.63;;;19.57;44.23
79799;BME280;69283;48.024;11.090;2023-05-29T07:52:03;95452.81;;;19.53;44.27
79799;BME280;69283;48.024;11.090;2023-05-29T07:54:30;95446.56;;;19.70;44.73
79799;BME280;69283;48.024;11.090;2023-05-29T07:56:59;95445.78;;;19.55;43.72
79799;BME280;69283;48.024;11.090;2023-05-29T07:59:27;95443.81;;;19.77;44.79
79799;BME280;69283;48.024;11.090;2023-05-29T08:01:53;95450.50;;;19.90;43.36
79799;BME280;69283;48.024;11.090;2023-05-29T08:04:21;95442.25;;;19.90;44.22
79799;BME280;69283;48.024;11.090;2023-05-29T08:06:46;95456.78;;;19.87;43.38
79799;BME280;69283;48.024;11.090;2023-05-29T08:09:12;95443.81;;;19.77;43.84
79799;BME280;69283;48.024;11.090;2023-05-29T08:11:38;95448.91;;;19.75;44.98
79799;BME280;69283;48.024;11.090;2023-05-29T08:14:03;95448.16;;;19.85;43.59
79799;BME280;69283;48.024;11.090;2023-05-29T08:16:28;95452.84;;;19.81;43.70
79799;BME280;69283;48.024;11.090;2023-05-29T08:18:54;95461.50;;;19.83;43.77
79799;BME280;69283;48.024;11.090;2023-05-29T08:21:19;95450.91;;;19.89;44.02
79799;BME280;69283;48.024;11.090;2023-05-29T08:23:45;95461.91;;;20.07;43.89
79799;BME280;69283;48.024;11.090;2023-05-29T08:26:10;95449.28;;;20.27;43.31
79799;BME280;69283;48.024;11.090;2023-05-29T08:28:35;95457.53;;;20.41;43.15
79799;BME280;69283;48.024;11.090;2023-05-29T08:31:00;95452.78;;;20.38;43.30
79799;BME280;69283;48.024;11.090;2023-05-29T08:33:26;95458.28;;;20.38;43.06
79799;BME280;69283;48.024;11.090;2023-05-29T08:35:52;95453.16;;;20.61;43.08
79799;BME280;69283;48.024;11.090;2023-05-29T08:38:17;95453.91;;;20.73;42.04
79799;BME280;69283;48.024;11.090;2023-05-29T08:40:42;95453.09;;;20.76;42.38
79799;BME280;69283;48.024;11.090;2023-05-29T08:43:23;95457.44;;;20.77;42.24
79799;BME280;69283;48.024;11.090;2023-05-29T08:45:53;95454.66;;;20.84;42.29
79799;BME280;69283;48.024;11.090;2023-05-29T08:48:22;95443.56;;;20.98;42.79
79799;BME280;69283;48.024;11.090;2023-05-29T08:50:49;95452.97;;;21.11;41.82
79799;BME280;69283;48.024;11.090;2023-05-29T08:53:17;95447.13;;;20.95;41.54
79799;BME280;69283;48.024;11.090;2023-05-29T08:55:44;95451.44;;;21.03;41.16
79799;BME280;69283;48.024;11.090;2023-05-29T08:58:13;95456.94;;;21.07;41.69
79799;BME280;69283;48.024;11.090;2023-05-29T09:00:39;95454.53;;;21.12;41.53
79799;BME280;69283;48.024;11.090;2023-05-29T09:03:06;95453.34;;;21.13;40.99
79799;BME280;69283;48.024;11.090;2023-05-29T09:05:31;95450.97;;;21.15;40.59
79799;BME280;69283;48.024;11.090;2023-05-29T09:07:57;95447.03;;;21.16;40.77
79799;BME280;69283;48.024;11.090;2023-05-29T09:10:24;95450.16;;;21.18;40.49
79799;BME280;69283;48.024;11.090;2023-05-29T09:12:51;95451.69;;;21.34;39.98
79799;BME280;69283;48.024;11.090;2023-05-29T09:15:21;95450.91;;;21.33;39.18
79799;BME280;69283;48.024;11.090;2023-05-29T09:20:18;95454.41;;;21.37;38.78
79799;BME280;69283;48.024;11.090;2023-05-29T09:23:12;95456.75;;;21.46;39.07
79799;BME280;69283;48.024;11.090;2023-05-29T09:25:41;95450.81;;;21.47;39.03
79799;BME280;69283;48.024;11.090;2023-05-29T09:28:09;95458.28;;;21.50;39.05
79799;BME280;69283;48.024;11.090;2023-05-29T09:33:08;95460.94;;;21.61;39.62
79799;BME280;69283;48.024;11.090;2023-05-29T09:35:34;95455.03;;;21.66;37.34
79799;BME280;69283;48.024;11.090;2023-05-29T09:38:01;95454.25;;;21.62;36.35
79799;BME280;69283;48.024;11.090;2023-05-29T09:40:29;95463.63;;;21.75;37.91
79799;BME280;69283;48.024;11.090;2023-05-29T09:42:54;95460.81;;;21.79;38.62
79799;BME280;69283;48.024;11.090;2023-05-29T09:45:20;95467.13;;;21.79;39.21
79799;BME280;69283;48.024;11.090;2023-05-29T09:47:46;95467.59;;;21.71;38.26
79799;BME280;69283;48.024;11.090;2023-05-29T09:50:19;95464.84;;;21.71;38.46
79799;BME280;69283;48.024;11.090;2023-05-29T09:52:47;95452.69;;;21.61;38.57
79799;BME280;69283;48.024;11.090;2023-05-29T09:55:18;95464.81;;;21.74;38.54
79799;BME280;69283;48.024;11.090;2023-05-29T09:57:47;95466.31;;;21.86;37.10
79799;BME280;69283;48.024;11.090;2023-05-29T10:00:13;95463.19;;;21.80;37.84
79799;BME280;69283;48.024;11.090;2023-05-29T10:02:39;95464.72;;;21.89;37.17
79799;BME280;69283;48.024;11.090;2023-05-29T10:05:06;95460.69;;;21.97;36.18
79799;BME280;69283;48.024;11.090;2023-05-29T10:07:36;95454.75;;;21.98;37.03
79799;BME280;69283;48.024;11.090;2023-05-29T10:10:03;95450.41;;;22.01;36.13
79799;BME280;69283;48.024;11.090;2023-05-29T10:12:32;95450.38;;;22.08;37.35
79799;BME280;69283;48.024;11.090;2023-05-29T10:15:00;95450.31;;;22.15;37.60
79799;BME280;69283;48.024;11.090;2023-05-29T10:17:32;95449.00;;;22.30;36.00
79799;BME280;69283;48.024;11.090;2023-05-29T10:20:01;95440.72;;;22.30;35.87
79799;BME280;69283;48.024;11.090;2023-05-29T10:22:27;95440.00;;;22.23;35.29
79799;BME280;69283;48.024;11.090;2023-05-29T10:24:56;95441.66;;;22.13;36.13
79799;BME280;69283;48.024;11.090;2023-05-29T10:27:21;95446.44;;;22.02;36.69
79799;BME280;69283;48.024;11.090;2023-05-29T10:29:51;95442.53;;;22.03;36.61
79799;BME280;69283;48.024;11.090;2023-05-29T10:35:12;95439.38;;;22.01;37.22
79799;BME280;69283;48.024;11.090;2023-05-29T10:37:45;95444.47;;;22.02;36.63
79799;BME280;69283;48.024;11.090;2023-05-29T10:40:13;95443.53;;;21.75;37.26
79799;BME280;69283;48.024;11.090;2023-05-29T10:45:09;95438.22;;;21.98;38.03
79799;BME280;69283;48.024;11.090;2023-05-29T10:47:38;95436.97;;;22.10;36.60
79799;BME280;69283;48.024;11.090;2023-05-29T10:50:04;95433.34;;;22.16;35.94
79799;BME280;69283;48.024;11.090;2023-05-29T10:52:33;95434.09;;;22.24;37.18
79799;BME280;69283;48.024;11.090;2023-05-29T10:54:59;95432.72;;;22.39;35.57
79799;BME280;69283;48.024;11.090;2023-05-29T10:57:28;95433.59;;;22.33;35.76
79799;BME280;69283;48.024;11.090;2023-05-29T11:00:03;95435.84;;;22.41;36.09
79799;BME280;69283;48.024;11.090;2023-05-29T11:02:31;95434.97;;;22.52;36.15
79799;BME280;69283;48.024;11.090;2023-05-29T11:05:19;95435.94;;;22.34;34.30
79799;BME280;69283;48.024;11.090;2023-05-29T11:07:57;95436.69;;;22.38;35.52
79799;BME280;69283;48.024;11.090;2023-05-29T11:10:43;95440.69;;;22.34;34.92
79799;BME280;69283;48.024;11.090;2023-05-29T11:13:23;95442.38;;;22.24;35.97
79799;BME280;69283;48.024;11.090;2023-05-29T11:18:41;95433.19;;;22.34;32.49
79799;BME280;69283;48.024;11.090;2023-05-29T11:21:23;95433.56;;;22.36;32.68
79799;BME280;69283;48.024;11.090;2023-05-29T11:23:51;95432.72;;;22.43;34.81
79799;BME280;69283;48.024;11.090;2023-05-29T11:26:22;95445.50;;;22.60;35.75
79799;BME280;69283;48.024;11.090;2023-05-29T11:28:48;95434.16;;;22.55;34.29
79799;BME280;69283;48.024;11.090;2023-05-29T11:31:14;95428.16;;;22.60;34.52
79799;BME280;69283;48.024;11.090;2023-05-29T11:33:48;95431.75;;;22.57;35.25
79799;BME280;69283;48.024;11.090;2023-05-29T11:36:15;95440.81;;;22.57;33.55
79799;BME280;69283;48.024;11.090;2023-05-29T11:38:41;95437.72;;;22.52;35.33
79799;BME280;69283;48.024;11.090;2023-05-29T11:41:07;95433.88;;;22.42;33.94
79799;BME280;69283;48.024;11.090;2023-05-29T11:43:32;95437.50;;;22.35;32.89
79799;BME280;69283;48.024;11.090;2023-05-29T11:45:58;95429.53;;;22.44;33.03
79799;BME280;69283;48.024;11.090;2023-05-29T11:48:23;95431.00;;;22.53;33.95
79799;BME280;69283;48.024;11.090;2023-05-29T11:50:49;95424.94;;;22.68;33.40
79799;BME280;69283;48.024;11.090;2023-05-29T11:53:15;95431.19;;;22.72;33.80
79799;BME280;69283;48.024;11.090;2023-05-29T11:55:40;95428.47;;;22.69;34.82
79799;BME280;69283;48.024;11.090;2023-05-29T11:58:06;95432.81;;;22.70;33.80
79799;BME280;69283;48.024;11.090;2023-05-29T12:00:33;95426.91;;;22.68;33.81
79799;BME280;69283;48.024;11.090;2023-05-29T12:02:59;95433.25;;;22.65;33.15
79799;BME280;69283;48.024;11.090;2023-05-29T12:05:50;95426.19;;;22.60;33.03
79799;BME280;69283;48.024;11.090;2023-05-29T12:08:21;95426.94;;;22.64;32.68
79799;BME280;69283;48.024;11.090;2023-05-29T12:10:51;95417.47;;;22.65;31.69
79799;BME280;69283;48.024;11.090;2023-05-29T12:13:19;95419.00;;;22.70;32.17
79799;BME280;69283;48.024;11.090;2023-05-29T12:15:44;95419.03;;;22.66;30.56
79799;BME280;69283;48.024;11.090;2023-05-29T12:18:10;95420.66;;;22.60;30.31
79799;BME280;69283;48.024;11.090;2023-05-29T12:20:36;95420.28;;;22.58;31.03
79799;BME280;69283;48.024;11.090;2023-05-29T12:23:02;95419.50;;;22.58;33.05
79799;BME280;69283;48.024;11.090;2023-05-29T12:25:28;95420.34;;;22.55;32.92
79799;BME280;69283;48.024;11.090;2023-05-29T12:27:55;95429.41;;;22.55;32.33
79799;BME280;69283;48.024;11.090;2023-05-29T12:30:21;95421.00;;;22.66;33.23
79799;BME280;69283;48.024;11.090;2023-05-29T12:32:49;95420.19;;;22.69;31.30
79799;BME280;69283;48.024;11.090;2023-05-29T12:35:21;95420.97;;;22.69;31.31
79799;BME280;69283;48.024;11.090;2023-05-29T12:37:58;95421.00;;;22.66;32.76
79799;BME280;69283;48.024;11.090;2023-05-29T12:40:28;95417.50;;;22.62;31.36
79799;BME280;69283;48.024;11.090;2023-05-29T12:43:02;95427.75;;;22.61;31.99
79799;BME280;69283;48.024;11.090;2023-05-29T12:45:29;95421.28;;;22.75;31.97
79799;BME280;69283;48.024;11.090;2023-05-29T12:48:00;95427.16;;;22.84;32.64
79799;BME280;69283;48.024;11.090;2023-05-29T12:50:28;95420.91;;;22.73;32.39
79799;BME280;69283;48.024;11.090;2023-05-29T12:55:31;95426.69;;;22.89;31.89
79799;BME280;69283;48.024;11.090;2023-05-29T12:57:58;95429.91;;;22.84;31.04
79799;BME280;69283;48.024;11.090;2023-05-29T13:00:24;95427.41;;;22.93;31.38
79799;BME280;69283;48.024;11.090;2023-05-29T13:02:49;95422.97;;;22.99;31.41
79799;BME280;69283;48.024;11.090;2023-05-29T13:05:15;95422.81;;;22.83;30.12
79799;BME280;69283;48.024;11.090;2023-05-29T13:07:42;95420.41;;;22.85;30.16
79799;BME280;69283;48.024;11.090;2023-05-29T13:10:08;95418.47;;;22.78;29.14
79799;BME280;69283;48.024;11.090;2023-05-29T13:12:34;95419.00;;;22.70;29.81